createdAt,value
2022-07-25T00:00:56.805Z,7.90
2022-07-25T00:06:06.203Z,8.13
2022-07-25T00:11:14.932Z,8.00
2022-07-25T00:16:23.136Z,8.23
2022-07-25T00:21:27.604Z,7.65
2022-07-25T00:26:39.450Z,8.00
2022-07-25T00:32:06.613Z,8.32
2022-07-25T00:37:22.910Z,7.57
2022-07-25T00:42:54.772Z,7.63
2022-07-25T00:48:01.398Z,8.55
2022-07-25T00:53:05.837Z,9.13
2022-07-25T00:58:19.054Z,7.53
2022-07-25T01:03:30.048Z,8.73
2022-07-25T01:08:42.056Z,8.68
2022-07-25T01:13:53.883Z,8.50
2022-07-25T01:19:01.853Z,9.13
2022-07-25T01:24:10.332Z,8.73
2022-07-25T01:29:15.762Z,9.63
2022-07-25T01:34:25.315Z,8.80
2022-07-25T01:39:44.297Z,8.43
2022-07-25T01:44:49.735Z,7.72
2022-07-25T01:50:08.403Z,8.30
2022-07-25T01:55:21.914Z,8.30
2022-07-25T02:00:26.275Z,8.90
2022-07-25T02:05:32.882Z,9.10
2022-07-25T02:10:45.727Z,8.90
2022-07-25T02:15:57.185Z,6.97
2022-07-25T02:21:06.039Z,8.43
2022-07-25T02:26:26.109Z,9.52
2022-07-25T02:31:31.517Z,9.73
2022-07-25T02:36:45.275Z,10.02
2022-07-25T02:41:57.372Z,9.45
2022-07-25T02:47:04.853Z,10.38
2022-07-25T02:52:08.821Z,9.80
2022-07-25T02:57:18.719Z,10.18
2022-07-25T03:02:25.495Z,10.02
2022-07-25T03:07:38.694Z,9.38
2022-07-25T03:12:50.921Z,10.02
2022-07-25T03:17:58.054Z,10.13
2022-07-25T03:23:07.205Z,10.27
2022-07-25T03:28:13.711Z,10.02
2022-07-25T03:33:18.708Z,9.60
2022-07-25T03:38:24.802Z,9.88
2022-07-25T03:43:32.447Z,9.20
2022-07-25T03:48:47.014Z,9.87
2022-07-25T03:54:09.345Z,10.18
2022-07-25T03:59:19.310Z,9.90
2022-07-25T04:04:24.489Z,7.85
2022-07-25T04:09:33.911Z,9.95
2022-07-25T04:14:55.876Z,9.88
2022-07-25T04:20:01.906Z,10.00
2022-07-25T04:25:09.912Z,9.93
2022-07-25T04:30:23.906Z,7.28
2022-07-25T04:35:33.825Z,9.52
2022-07-25T04:40:44.112Z,9.40
2022-07-25T04:45:53.746Z,9.10
2022-07-25T04:51:12.265Z,5.20
2022-07-25T04:56:26.957Z,9.13
2022-07-25T05:01:41.248Z,9.63
2022-07-25T05:06:47.995Z,8.77
2022-07-25T05:11:56.414Z,9.38
2022-07-25T05:17:06.343Z,8.85
2022-07-25T05:22:10.520Z,9.85
2022-07-25T05:27:14.520Z,9.50
2022-07-25T05:32:24.534Z,8.43
2022-07-25T05:37:33.289Z,7.45
2022-07-25T05:42:38.142Z,8.90
2022-07-25T05:47:46.495Z,9.00
2022-07-25T05:52:58.306Z,9.82
2022-07-25T05:58:03.679Z,9.48
2022-07-25T06:03:19.064Z,7.20
2022-07-25T06:08:28.903Z,9.52
2022-07-25T06:13:33.153Z,9.93
2022-07-25T06:18:44.995Z,9.52
2022-07-25T06:23:48.242Z,10.45
2022-07-25T06:28:54.078Z,10.15
2022-07-25T06:34:04.877Z,6.57
2022-07-25T06:39:08.777Z,8.60
2022-07-25T06:44:19.441Z,8.38
2022-07-25T06:49:32.821Z,8.50
2022-07-25T06:54:40.966Z,6.43
2022-07-25T06:59:48.227Z,9.48
2022-07-25T07:04:58.307Z,9.13
2022-07-25T07:10:06.847Z,9.52
2022-07-25T07:15:20.661Z,9.88
2022-07-25T07:20:26.687Z,10.15
2022-07-25T07:25:35.136Z,9.50
2022-07-25T07:36:04.561Z,9.60
2022-07-25T07:41:10.289Z,9.48
2022-07-25T07:46:16.181Z,8.07
2022-07-25T07:51:21.540Z,9.50
2022-07-25T07:56:26.419Z,10.02
2022-07-25T08:01:36.667Z,10.45
2022-07-25T08:06:58.162Z,7.40
2022-07-25T08:17:42.115Z,10.23
2022-07-25T08:22:56.727Z,9.93
2022-07-25T08:28:02.432Z,9.73
2022-07-25T08:33:17.475Z,9.23
2022-07-25T08:38:25.064Z,9.60
2022-07-25T08:43:34.054Z,9.43
2022-07-25T08:48:52.683Z,9.18
2022-07-25T08:54:08.958Z,8.90
2022-07-25T08:59:20.006Z,9.77
2022-07-25T09:04:29.068Z,9.63
2022-07-25T09:09:39.726Z,9.52
2022-07-25T09:14:58.342Z,9.25
2022-07-25T09:20:18.521Z,9.70
2022-07-25T09:25:30.002Z,9.07
2022-07-25T09:31:00.819Z,7.85
2022-07-25T09:36:18.722Z,8.93
2022-07-25T09:41:36.025Z,9.55
2022-07-25T09:52:13.413Z,9.82
2022-07-25T09:57:16.346Z,9.50
2022-07-25T10:02:27.684Z,9.07
2022-07-25T10:07:31.848Z,9.00
2022-07-25T10:12:34.812Z,9.45
2022-07-25T10:17:39.288Z,8.80
2022-07-25T10:22:56.276Z,9.32
2022-07-25T10:28:02.953Z,9.30
2022-07-25T10:33:11.676Z,8.48
2022-07-25T10:38:24.980Z,9.27
2022-07-25T10:43:28.134Z,8.90
2022-07-25T10:48:32.513Z,9.13
2022-07-25T10:53:38.385Z,8.07
2022-07-25T10:58:45.983Z,7.90
2022-07-25T11:03:48.920Z,7.47
2022-07-25T11:08:57.677Z,8.13
2022-07-25T11:14:00.627Z,7.40
2022-07-25T11:19:03.729Z,6.47
2022-07-25T11:24:09.010Z,6.78
2022-07-25T11:29:19.238Z,6.22
2022-07-25T11:34:24.286Z,6.90
2022-07-25T11:39:29.527Z,5.85
2022-07-25T11:44:36.699Z,5.90
2022-07-25T11:49:46.335Z,5.95
2022-07-25T11:54:54.842Z,5.97
2022-07-25T11:59:57.847Z,5.90
2022-07-25T12:05:01.405Z,5.75
2022-07-25T12:10:06.186Z,5.60
2022-07-25T12:15:10.822Z,5.75
2022-07-25T12:20:17.152Z,6.05
2022-07-25T12:25:23.631Z,5.32
2022-07-25T12:30:28.630Z,5.38
2022-07-25T12:35:32.563Z,5.50
2022-07-25T12:40:36.687Z,6.30
2022-07-25T12:45:39.409Z,6.30
2022-07-25T12:50:42.166Z,6.35
2022-07-25T12:55:46.503Z,6.10
2022-07-25T13:00:49.638Z,5.78
2022-07-25T13:05:52.517Z,6.22
2022-07-25T13:10:56.995Z,6.28
2022-07-25T13:16:00.316Z,6.18
2022-07-25T13:21:03.605Z,6.93
2022-07-25T13:26:07.984Z,6.07
2022-07-25T13:31:22.749Z,5.75
2022-07-25T13:36:26.077Z,4.70
2022-07-25T13:41:30.162Z,6.63
2022-07-25T13:46:32.929Z,6.07
2022-07-25T13:51:35.672Z,5.60
2022-07-25T13:56:41.417Z,5.68
2022-07-25T14:01:46.099Z,5.25
2022-07-25T14:06:52.139Z,5.82
2022-07-25T14:11:56.338Z,4.18
2022-07-25T14:16:59.273Z,5.80
2022-07-25T14:22:02.053Z,4.82
2022-07-25T14:27:07.057Z,5.18
2022-07-25T14:32:09.840Z,5.03
2022-07-25T14:37:13.152Z,5.10
2022-07-25T14:42:17.797Z,5.15
2022-07-25T14:47:20.753Z,4.65
2022-07-25T14:52:24.005Z,4.43
2022-07-25T14:57:28.082Z,4.68
2022-07-25T15:02:32.342Z,4.50
2022-07-25T15:07:35.111Z,4.15
2022-07-25T15:12:40.241Z,4.60
2022-07-25T15:17:43.368Z,4.47
2022-07-25T15:22:46.168Z,4.20
2022-07-25T15:27:50.361Z,3.35
2022-07-25T15:32:54.017Z,3.67
2022-07-25T15:37:57.480Z,3.63
2022-07-25T15:43:02.067Z,4.32
2022-07-25T15:48:07.916Z,3.50
2022-07-25T15:53:11.787Z,3.17
2022-07-25T15:58:18.151Z,3.90
2022-07-25T16:03:21.638Z,3.55
2022-07-25T16:08:24.640Z,3.33
2022-07-25T16:13:29.721Z,3.97
2022-07-25T16:18:32.631Z,3.63
2022-07-25T16:23:41.501Z,3.70
2022-07-25T16:28:49.565Z,4.35
2022-07-25T16:33:52.397Z,5.00
2022-07-25T16:38:55.190Z,4.30
2022-07-25T16:43:59.402Z,4.40
2022-07-25T16:49:02.239Z,4.75
2022-07-25T16:54:05.615Z,5.10
2022-07-25T16:59:11.279Z,5.47
2022-07-25T17:04:14.978Z,5.55
2022-07-25T17:09:18.107Z,5.88
2022-07-25T17:14:27.725Z,4.20
2022-07-25T17:19:35.643Z,5.63
2022-07-25T17:24:39.269Z,5.65
2022-07-25T17:29:43.430Z,6.20
2022-07-25T17:34:47.171Z,6.05
2022-07-25T17:39:49.983Z,6.03
2022-07-25T17:44:55.609Z,8.90
2022-07-25T17:49:58.454Z,6.43
2022-07-25T17:55:01.154Z,6.10
2022-07-25T18:00:06.203Z,8.15
2022-07-25T18:05:09.271Z,5.97
2022-07-25T18:10:12.004Z,6.57
2022-07-25T18:15:16.186Z,6.40
2022-07-25T18:20:18.957Z,6.70
2022-07-25T18:25:21.800Z,6.40
2022-07-25T18:30:29.269Z,6.30
2022-07-25T18:35:32.343Z,6.35
2022-07-25T18:40:35.240Z,6.32
2022-07-25T18:45:39.740Z,7.80
2022-07-25T18:50:42.987Z,5.70
2022-07-25T18:55:45.828Z,7.25
2022-07-25T19:00:50.977Z,5.85
2022-07-25T19:05:57.705Z,6.20
2022-07-25T19:11:04.278Z,15.73
2022-07-25T19:16:10.655Z,7.70
2022-07-25T19:21:14.029Z,8.80
2022-07-25T19:26:17.632Z,10.07
2022-07-25T19:31:21.930Z,6.43
2022-07-25T19:36:24.796Z,10.10
2022-07-25T19:41:28.616Z,7.25
2022-07-25T19:46:34.157Z,8.57
2022-07-25T19:51:37.092Z,6.80
2022-07-25T19:56:39.865Z,6.43
2022-07-25T20:01:47.228Z,6.50
2022-07-25T20:06:50.637Z,8.35
2022-07-25T20:11:54.110Z,6.32
2022-07-25T20:16:58.702Z,5.95
2022-07-25T20:22:02.055Z,6.38
2022-07-25T20:27:05.132Z,6.57
2022-07-25T20:32:09.283Z,4.88
2022-07-25T20:37:12.041Z,5.22
2022-07-25T20:42:16.711Z,5.80
2022-07-25T20:47:20.863Z,5.65
2022-07-25T20:52:23.648Z,6.93
2022-07-25T20:57:27.540Z,6.95
2022-07-25T21:02:32.672Z,6.38
2022-07-25T21:07:35.938Z,5.55
2022-07-25T21:12:39.031Z,7.07
2022-07-25T21:17:43.358Z,5.38
2022-07-25T21:22:46.743Z,5.95
2022-07-25T21:32:53.403Z,4.80
2022-07-25T21:37:56.347Z,6.93
2022-07-25T21:42:59.043Z,6.38
2022-07-25T21:48:04.635Z,6.70
2022-07-25T21:53:14.800Z,5.38
2022-07-25T21:58:56.091Z,9.27
2022-07-25T22:15:19.498Z,6.63
2022-07-25T22:20:26.475Z,5.20
2022-07-25T22:25:44.599Z,4.95
2022-07-25T22:30:55.526Z,5.70
2022-07-25T22:36:03.204Z,7.35
2022-07-25T22:41:12.326Z,4.60
2022-07-25T22:46:33.251Z,5.85
2022-07-25T22:51:41.278Z,4.50
2022-07-25T23:02:13.790Z,3.65
2022-07-25T23:07:33.448Z,3.22
2022-07-25T23:12:41.058Z,6.68
2022-07-25T23:17:53.494Z,4.75
2022-07-25T23:22:59.493Z,4.53
2022-07-25T23:28:12.487Z,6.82
2022-07-25T23:33:24.490Z,4.15
2022-07-25T23:43:56.967Z,5.13
2022-07-25T23:49:07.658Z,3.63
2022-07-25T23:54:13.085Z,5.03
2022-07-25T23:59:20.901Z,2.35
